createdAt,value
2018-05-26T00:00:49.236Z,21.08
2018-05-26T00:01:49.214Z,21.10
2018-05-26T00:02:49.147Z,21.14
2018-05-26T00:03:49.104Z,21.08
2018-05-26T00:04:49.059Z,21.15
2018-05-26T00:05:49.017Z,21.17
2018-05-26T00:06:48.996Z,21.14
2018-05-26T00:07:48.931Z,21.14
2018-05-26T00:08:48.885Z,21.12
2018-05-26T00:09:48.841Z,21.10
2018-05-26T00:10:48.796Z,21.12
2018-05-26T00:11:48.775Z,21.06
2018-05-26T00:12:48.709Z,21.10
2018-05-26T00:13:48.689Z,21.11
2018-05-26T00:14:48.622Z,21.11
2018-05-26T00:15:48.584Z,21.06
2018-05-26T00:16:48.558Z,21.11
2018-05-26T00:17:48.494Z,21.06
2018-05-26T00:18:48.446Z,21.08
2018-05-26T00:19:48.406Z,21.12
2018-05-26T00:20:48.364Z,21.12
2018-05-26T00:21:48.342Z,21.10
2018-05-26T00:22:48.275Z,21.12
2018-05-26T00:23:48.230Z,21.06
2018-05-26T00:24:48.190Z,21.11
2018-05-26T00:25:48.142Z,21.05
2018-05-26T00:26:48.123Z,21.05
2018-05-26T00:27:48.051Z,21.03
2018-05-26T00:28:48.010Z,21.00
2018-05-26T00:29:47.969Z,21.02
2018-05-26T00:30:47.922Z,21.00
2018-05-26T00:31:47.914Z,20.97
2018-05-26T00:32:47.837Z,20.93
2018-05-26T00:33:47.790Z,20.97
2018-05-26T00:34:47.745Z,20.93
2018-05-26T00:35:47.704Z,20.78
2018-05-26T00:36:47.656Z,20.84
2018-05-26T00:37:47.637Z,20.78
2018-05-26T00:38:47.568Z,20.81
2018-05-26T00:39:47.527Z,20.78
2018-05-26T00:40:47.480Z,20.62
2018-05-26T00:41:47.443Z,20.69
2018-05-26T00:42:47.417Z,20.67
2018-05-26T00:43:47.352Z,20.66
2018-05-26T00:44:47.303Z,20.62
2018-05-26T00:45:47.260Z,20.60
2018-05-26T00:46:47.214Z,20.60
2018-05-26T00:47:47.192Z,20.62
2018-05-26T00:48:47.162Z,20.57
2018-05-26T00:49:47.082Z,20.57
2018-05-26T00:50:47.038Z,20.63
2018-05-26T00:51:46.994Z,20.53
2018-05-26T00:52:46.988Z,20.48
2018-05-26T00:53:46.904Z,20.53
2018-05-26T00:54:46.952Z,20.57
2018-05-26T00:55:46.814Z,20.52
2018-05-26T00:56:46.771Z,20.52
2018-05-26T00:57:46.749Z,20.50
2018-05-26T00:58:46.683Z,20.43
2018-05-26T00:59:46.638Z,20.43
2018-05-26T01:00:46.594Z,20.44
2018-05-26T01:01:46.550Z,20.47
2018-05-26T01:02:46.532Z,20.43
2018-05-26T01:03:46.462Z,20.39
2018-05-26T01:04:46.425Z,20.26
2018-05-26T01:05:46.373Z,20.39
2018-05-26T01:06:46.325Z,20.24
2018-05-26T01:07:46.304Z,20.29
2018-05-26T01:08:46.235Z,20.28
2018-05-26T01:09:46.199Z,20.22
2018-05-26T01:10:46.154Z,20.24
2018-05-26T01:11:46.108Z,20.24
2018-05-26T01:12:46.084Z,20.18
2018-05-26T01:13:46.026Z,20.14
2018-05-26T01:14:45.969Z,20.17
2018-05-26T01:15:45.932Z,20.18
2018-05-26T01:16:45.879Z,20.24
2018-05-26T01:17:45.859Z,20.19
2018-05-26T01:18:45.789Z,20.21
2018-05-26T01:19:45.749Z,20.18
2018-05-26T01:20:45.701Z,20.21
2018-05-26T01:21:45.657Z,20.21
2018-05-26T01:22:45.641Z,20.10
2018-05-26T01:23:45.582Z,20.18
2018-05-26T01:24:45.522Z,20.14
2018-05-26T01:25:45.480Z,20.10
2018-05-26T01:26:45.435Z,20.17
2018-05-26T01:27:45.413Z,20.17
2018-05-26T01:28:45.345Z,20.15
2018-05-26T01:29:45.301Z,20.04
2018-05-26T01:30:45.253Z,20.17
2018-05-26T01:31:45.209Z,20.07
2018-05-26T01:32:45.205Z,20.01
2018-05-26T01:33:45.123Z,20.15
2018-05-26T01:34:45.075Z,20.15
2018-05-26T01:35:45.036Z,20.15
2018-05-26T01:36:44.987Z,20.17
2018-05-26T01:37:44.968Z,20.04
2018-05-26T01:38:44.899Z,20.01
2018-05-26T01:39:44.852Z,20.03
2018-05-26T01:40:44.808Z,20.07
2018-05-26T01:41:44.765Z,20.06
2018-05-26T01:42:44.743Z,20.06
2018-05-26T01:43:44.674Z,20.03
2018-05-26T01:44:44.633Z,20.09
2018-05-26T01:45:44.587Z,20.10
2018-05-26T01:46:44.542Z,20.09
2018-05-26T01:47:44.517Z,20.10
2018-05-26T01:48:44.455Z,20.09
2018-05-26T01:49:44.408Z,20.06
2018-05-26T01:50:44.359Z,20.10
2018-05-26T01:51:44.316Z,20.09
2018-05-26T01:52:44.298Z,19.96
2018-05-26T01:53:44.228Z,20.09
2018-05-26T01:54:44.181Z,20.09
2018-05-26T01:55:44.140Z,20.09
2018-05-26T01:56:44.093Z,20.10
2018-05-26T01:57:44.072Z,20.03
2018-05-26T01:58:44.023Z,20.07
2018-05-26T01:59:43.957Z,20.14
2018-05-26T02:00:43.915Z,20.07
2018-05-26T02:01:43.871Z,20.03
2018-05-26T02:02:43.851Z,20.06
2018-05-26T02:03:43.780Z,20.00
2018-05-26T02:04:43.736Z,19.99
2018-05-26T02:05:43.688Z,20.09
2018-05-26T02:06:43.651Z,20.01
2018-05-26T02:07:43.623Z,20.06
2018-05-26T02:08:43.561Z,20.09
2018-05-26T02:09:43.512Z,20.09
2018-05-26T02:10:43.467Z,20.09
2018-05-26T02:11:43.422Z,20.03
2018-05-26T02:12:43.402Z,19.99
2018-05-26T02:13:43.334Z,19.99
2018-05-26T02:14:43.286Z,20.00
2018-05-26T02:15:43.249Z,19.96
2018-05-26T02:16:43.203Z,19.97
2018-05-26T02:17:43.190Z,19.99
2018-05-26T02:18:43.112Z,20.01
2018-05-26T02:19:43.070Z,20.00
2018-05-26T02:20:43.022Z,20.03
2018-05-26T02:21:42.984Z,19.92
2018-05-26T02:22:42.953Z,19.96
2018-05-26T02:23:42.891Z,19.99
2018-05-26T02:24:42.843Z,19.97
2018-05-26T02:25:42.797Z,19.96
2018-05-26T02:26:42.753Z,19.89
2018-05-26T02:27:42.736Z,19.91
2018-05-26T02:28:42.665Z,19.96
2018-05-26T02:29:42.620Z,19.91
2018-05-26T02:30:42.575Z,19.92
2018-05-26T02:31:42.533Z,19.86
2018-05-26T02:32:42.509Z,19.94
2018-05-26T02:33:42.456Z,19.89
2018-05-26T02:34:42.395Z,19.86
2018-05-26T02:35:42.357Z,19.86
2018-05-26T02:36:42.307Z,19.96
2018-05-26T02:37:42.286Z,19.86
2018-05-26T02:38:42.216Z,19.89
2018-05-26T02:39:42.170Z,19.88
2018-05-26T02:40:42.129Z,19.81
2018-05-26T02:41:42.090Z,19.85
2018-05-26T02:42:42.064Z,19.70
2018-05-26T02:43:41.993Z,19.71
2018-05-26T02:44:41.949Z,19.74
2018-05-26T02:45:41.904Z,19.64
2018-05-26T02:46:41.859Z,19.69
2018-05-26T02:47:41.836Z,19.62
2018-05-26T02:48:41.770Z,19.67
2018-05-26T02:49:41.751Z,19.63
2018-05-26T02:50:41.682Z,19.51
2018-05-26T02:51:41.633Z,19.51
2018-05-26T02:52:41.613Z,19.51
2018-05-26T02:53:41.543Z,19.54
2018-05-26T02:54:41.502Z,19.49
2018-05-26T02:55:41.458Z,19.39
2018-05-26T02:56:41.410Z,19.44
2018-05-26T02:57:41.390Z,19.45
2018-05-26T02:58:41.323Z,19.48
2018-05-26T02:59:41.279Z,19.42
2018-05-26T03:00:41.234Z,19.37
2018-05-26T03:01:41.184Z,19.42
2018-05-26T03:02:41.165Z,19.36
2018-05-26T03:03:41.098Z,19.30
2018-05-26T03:04:41.052Z,19.34
2018-05-26T03:05:41.005Z,19.33
2018-05-26T03:06:40.966Z,19.34
2018-05-26T03:07:40.941Z,19.29
2018-05-26T03:08:40.892Z,19.33
2018-05-26T03:09:40.824Z,19.26
2018-05-26T03:10:40.784Z,19.19
2018-05-26T03:11:40.739Z,19.26
2018-05-26T03:12:40.693Z,19.24
2018-05-26T03:13:40.669Z,19.15
2018-05-26T03:14:40.601Z,19.24
2018-05-26T03:15:40.553Z,19.14
2018-05-26T03:16:40.511Z,19.15
2018-05-26T03:17:40.465Z,19.12
2018-05-26T03:18:40.440Z,19.16
2018-05-26T03:19:40.377Z,19.04
2018-05-26T03:20:40.332Z,19.07
2018-05-26T03:21:40.291Z,19.00
2018-05-26T03:22:40.238Z,18.99
2018-05-26T03:23:40.218Z,18.96
2018-05-26T03:24:40.153Z,18.92
2018-05-26T03:25:40.104Z,18.92
2018-05-26T03:26:40.060Z,18.88
2018-05-26T03:27:40.016Z,18.90
2018-05-26T03:28:39.995Z,18.86
2018-05-26T03:29:39.928Z,18.90
2018-05-26T03:30:39.876Z,18.89
2018-05-26T03:31:39.838Z,18.78
2018-05-26T03:32:39.787Z,18.93
2018-05-26T03:33:39.766Z,18.86
2018-05-26T03:34:39.697Z,18.86
2018-05-26T03:35:39.654Z,18.89
2018-05-26T03:36:39.643Z,18.83
2018-05-26T03:37:39.564Z,18.78
2018-05-26T03:38:39.540Z,18.73
2018-05-26T03:39:39.472Z,18.77
2018-05-26T03:40:39.425Z,18.80
2018-05-26T03:41:39.380Z,18.77
2018-05-26T03:42:39.334Z,18.78
2018-05-26T03:43:39.318Z,18.70
2018-05-26T03:44:39.246Z,18.67
2018-05-26T03:45:39.202Z,18.75
2018-05-26T03:46:39.151Z,18.70
2018-05-26T03:47:39.119Z,18.77
2018-05-26T03:48:39.111Z,18.73
2018-05-26T03:49:39.021Z,18.70
2018-05-26T03:50:38.973Z,18.73
2018-05-26T03:51:38.931Z,18.80
2018-05-26T03:52:38.886Z,18.78
2018-05-26T03:53:38.865Z,18.66
2018-05-26T03:54:38.791Z,18.78
2018-05-26T03:55:38.756Z,18.80
2018-05-26T03:56:38.700Z,18.78
2018-05-26T03:57:38.657Z,18.83
2018-05-26T03:58:38.632Z,18.85
2018-05-26T03:59:38.566Z,18.95
2018-05-26T04:00:38.521Z,18.89
2018-05-26T04:01:38.478Z,18.95
2018-05-26T04:02:38.432Z,19.07
2018-05-26T04:03:38.406Z,18.99
2018-05-26T04:04:38.341Z,18.98
2018-05-26T04:05:38.292Z,19.08
2018-05-26T04:06:38.252Z,19.11
2018-05-26T04:07:38.224Z,19.12
2018-05-26T04:08:38.184Z,19.12
2018-05-26T04:09:38.114Z,19.05
2018-05-26T04:10:38.084Z,19.12
2018-05-26T04:11:38.025Z,19.12
2018-05-26T04:12:37.981Z,19.12
2018-05-26T04:13:37.969Z,19.12
2018-05-26T04:14:37.893Z,19.09
2018-05-26T04:15:37.845Z,19.07
2018-05-26T04:16:37.799Z,19.14
2018-05-26T04:17:37.754Z,19.19
2018-05-26T04:18:37.712Z,19.27
2018-05-26T04:19:37.687Z,19.22
2018-05-26T04:20:37.621Z,19.37
2018-05-26T04:21:37.574Z,19.36
2018-05-26T04:22:37.527Z,19.36
2018-05-26T04:23:37.483Z,19.41
2018-05-26T04:24:37.465Z,19.44
2018-05-26T04:25:37.395Z,19.48
2018-05-26T04:26:37.349Z,19.55
2018-05-26T04:27:37.305Z,19.60
2018-05-26T04:28:37.257Z,19.69
2018-05-26T04:29:37.235Z,19.78
2018-05-26T04:30:37.178Z,19.81
2018-05-26T04:31:37.125Z,19.85
2018-05-26T04:32:37.078Z,19.86
2018-05-26T04:33:37.036Z,19.82
2018-05-26T04:34:37.017Z,19.89
2018-05-26T04:35:36.952Z,20.03
2018-05-26T04:36:36.901Z,20.03
2018-05-26T04:37:36.859Z,20.10
2018-05-26T04:38:36.810Z,20.18
2018-05-26T04:39:36.791Z,20.24
2018-05-26T04:40:36.722Z,20.18
2018-05-26T04:41:36.677Z,20.24
2018-05-26T04:42:36.636Z,20.29
2018-05-26T04:43:36.593Z,20.34
2018-05-26T04:44:36.571Z,20.40
2018-05-26T04:45:36.502Z,20.43
2018-05-26T04:46:36.458Z,20.55
2018-05-26T04:47:36.415Z,20.63
2018-05-26T04:48:36.370Z,20.62
2018-05-26T04:49:36.349Z,20.62
2018-05-26T04:50:36.282Z,20.66
2018-05-26T04:51:36.239Z,20.75
2018-05-26T04:52:36.193Z,20.78
2018-05-26T04:53:36.154Z,20.95
2018-05-26T04:54:36.130Z,20.96
2018-05-26T04:55:36.071Z,21.03
2018-05-26T04:56:36.019Z,21.05
2018-05-26T04:57:35.973Z,21.08
2018-05-26T04:58:35.928Z,21.06
2018-05-26T04:59:35.911Z,21.06
2018-05-26T05:00:35.842Z,21.08
2018-05-26T05:01:35.799Z,21.12
2018-05-26T05:02:35.754Z,21.12
2018-05-26T05:03:35.710Z,21.26
2018-05-26T05:04:35.692Z,21.33
2018-05-26T05:05:35.630Z,21.27
2018-05-26T05:06:35.577Z,21.48
2018-05-26T05:07:35.534Z,21.42
2018-05-26T05:08:35.492Z,21.45
2018-05-26T05:09:35.472Z,21.63
2018-05-26T05:10:35.410Z,21.65
2018-05-26T05:11:35.363Z,21.74
2018-05-26T05:12:35.319Z,21.88
2018-05-26T05:13:35.277Z,21.88
2018-05-26T05:14:35.258Z,21.81
2018-05-26T05:15:35.190Z,21.90
2018-05-26T05:16:35.147Z,21.96
2018-05-26T05:17:35.107Z,22.04
2018-05-26T05:18:35.062Z,21.90
2018-05-26T05:19:35.049Z,21.99
2018-05-26T05:20:34.976Z,21.99
2018-05-26T05:21:34.929Z,22.03
2018-05-26T05:22:34.886Z,22.03
2018-05-26T05:23:34.845Z,22.04
2018-05-26T05:24:34.827Z,22.19
2018-05-26T05:25:34.758Z,22.15
2018-05-26T05:26:34.715Z,22.30
2018-05-26T05:27:34.675Z,22.28
2018-05-26T05:28:34.645Z,22.17
2018-05-26T05:29:34.613Z,22.14
2018-05-26T05:30:34.545Z,22.11
2018-05-26T05:31:34.506Z,22.20
2018-05-26T05:32:34.464Z,22.28
2018-05-26T05:33:34.441Z,22.22
2018-05-26T05:34:34.396Z,22.29
2018-05-26T05:35:34.335Z,22.35
2018-05-26T05:36:34.292Z,22.41
2018-05-26T05:37:34.295Z,22.45
2018-05-26T05:38:34.205Z,22.51
2018-05-26T05:39:34.200Z,22.60
2018-05-26T05:40:34.122Z,22.48
2018-05-26T05:41:34.079Z,22.59
2018-05-26T05:42:34.039Z,22.63
2018-05-26T05:43:33.995Z,22.77
2018-05-26T05:44:33.977Z,22.87
2018-05-26T05:45:33.911Z,23.03
2018-05-26T05:46:33.865Z,23.13
2018-05-26T05:47:33.828Z,23.20
2018-05-26T05:48:33.784Z,23.25
2018-05-26T05:49:33.759Z,23.40
2018-05-26T05:50:33.703Z,23.43
2018-05-26T05:51:33.656Z,23.47
2018-05-26T05:52:33.612Z,23.56
2018-05-26T05:53:33.573Z,23.55
2018-05-26T05:54:33.557Z,23.62
2018-05-26T05:55:33.491Z,23.56
2018-05-26T05:56:33.474Z,23.66
2018-05-26T05:57:33.407Z,23.77
2018-05-26T05:58:33.361Z,23.86
2018-05-26T05:59:33.345Z,23.96
2018-05-26T06:00:33.279Z,24.07
2018-05-26T06:01:33.239Z,24.18
2018-05-26T06:02:33.197Z,24.21
2018-05-26T06:03:33.153Z,24.21
2018-05-26T06:04:33.137Z,24.32
2018-05-26T06:05:33.072Z,24.43
2018-05-26T06:06:33.032Z,24.44
2018-05-26T06:07:32.989Z,24.44
2018-05-26T06:08:32.948Z,24.57
2018-05-26T06:09:32.926Z,24.69
2018-05-26T06:10:32.861Z,24.74
2018-05-26T06:11:32.824Z,24.65
2018-05-26T06:12:32.784Z,24.47
2018-05-26T06:13:32.741Z,24.50
2018-05-26T06:14:32.720Z,24.52
2018-05-26T06:15:32.680Z,24.45
2018-05-26T06:16:32.617Z,24.44
2018-05-26T06:17:32.576Z,24.44
2018-05-26T06:18:32.533Z,24.55
2018-05-26T06:19:32.520Z,24.60
2018-05-26T06:20:32.456Z,24.60
2018-05-26T06:21:32.413Z,24.65
2018-05-26T06:22:32.368Z,24.47
2018-05-26T06:23:32.329Z,24.29
2018-05-26T06:24:32.314Z,24.36
2018-05-26T06:25:32.248Z,24.29
2018-05-26T06:26:32.243Z,24.20
2018-05-26T06:27:32.165Z,24.21
2018-05-26T06:28:32.125Z,24.28
2018-05-26T06:29:32.108Z,24.20
2018-05-26T06:30:32.044Z,24.29
2018-05-26T06:31:32.000Z,24.40
2018-05-26T06:32:31.959Z,24.58
2018-05-26T06:33:31.917Z,24.70
2018-05-26T06:34:31.907Z,24.78
2018-05-26T06:35:31.836Z,24.88
2018-05-26T06:36:31.800Z,25.01
2018-05-26T06:37:31.758Z,25.04
2018-05-26T06:38:31.715Z,25.22
2018-05-26T06:39:31.694Z,25.23
2018-05-26T06:40:31.633Z,25.30
2018-05-26T06:41:39.246Z,25.32
2018-05-26T06:42:31.554Z,25.37
2018-05-26T06:43:31.514Z,25.33
2018-05-26T06:44:31.496Z,25.30
2018-05-26T06:45:31.429Z,25.44
2018-05-26T06:46:31.393Z,25.33
2018-05-26T06:47:31.351Z,25.35
2018-05-26T06:48:31.310Z,25.44
2018-05-26T06:49:31.291Z,25.18
2018-05-26T06:50:31.226Z,25.13
2018-05-26T06:51:31.197Z,25.14
2018-05-26T06:52:31.145Z,25.08
2018-05-26T06:53:31.106Z,25.03
2018-05-26T06:54:31.107Z,25.03
2018-05-26T06:55:31.025Z,25.03
2018-05-26T06:56:30.985Z,25.15
2018-05-26T06:57:30.943Z,25.18
2018-05-26T06:58:30.904Z,25.18
2018-05-26T06:59:30.867Z,25.04
2018-05-26T07:00:30.849Z,25.13
2018-05-26T07:01:30.783Z,25.33
2018-05-26T07:02:30.747Z,25.32
2018-05-26T07:03:30.707Z,25.32
2018-05-26T07:04:30.663Z,25.06
2018-05-26T07:05:30.644Z,25.00
2018-05-26T07:06:30.582Z,25.07
2018-05-26T07:07:30.540Z,25.20
2018-05-26T07:08:30.500Z,25.08
2018-05-26T07:09:30.459Z,25.06
2018-05-26T07:10:30.447Z,24.95
2018-05-26T07:11:30.379Z,25.03
2018-05-26T07:12:30.336Z,25.04
2018-05-26T07:13:30.296Z,24.96
2018-05-26T07:14:30.259Z,25.04
2018-05-26T07:15:30.248Z,25.06
2018-05-26T07:16:30.176Z,25.33
2018-05-26T07:17:30.148Z,25.44
2018-05-26T07:18:30.093Z,25.47
2018-05-26T07:19:30.054Z,25.63
2018-05-26T07:20:30.035Z,25.77
2018-05-26T07:21:29.976Z,25.77
2018-05-26T07:22:29.933Z,25.78
2018-05-26T07:23:29.893Z,25.75
2018-05-26T07:24:29.857Z,25.92
2018-05-26T07:25:29.834Z,25.95
2018-05-26T07:26:29.774Z,25.90
2018-05-26T07:27:29.733Z,25.75
2018-05-26T07:28:29.693Z,25.75
2018-05-26T07:29:29.656Z,25.85
2018-05-26T07:30:29.636Z,25.87
2018-05-26T07:31:29.573Z,25.78
2018-05-26T07:32:29.533Z,25.75
2018-05-26T07:33:29.494Z,25.77
2018-05-26T07:34:29.454Z,25.75
2018-05-26T07:35:29.439Z,25.80
2018-05-26T07:36:29.374Z,25.78
2018-05-26T07:37:29.334Z,25.51
2018-05-26T07:38:29.291Z,25.38
2018-05-26T07:39:29.247Z,25.32
2018-05-26T07:40:29.237Z,25.33
2018-05-26T07:41:29.169Z,25.28
2018-05-26T07:42:29.128Z,25.33
2018-05-26T07:43:29.096Z,25.30
2018-05-26T07:44:29.050Z,25.43
2018-05-26T07:45:29.032Z,25.41
2018-05-26T07:46:28.972Z,25.40
2018-05-26T07:47:28.928Z,25.45
2018-05-26T07:48:28.887Z,25.48
2018-05-26T07:49:28.849Z,25.56
2018-05-26T07:50:28.837Z,25.59
2018-05-26T07:51:28.770Z,25.65
2018-05-26T07:52:28.727Z,25.78
2018-05-26T07:53:28.688Z,25.87
2018-05-26T07:54:28.647Z,25.74
2018-05-26T07:55:28.631Z,25.84
2018-05-26T07:56:28.569Z,25.87
2018-05-26T07:57:28.565Z,25.93
2018-05-26T07:58:28.549Z,25.97
2018-05-26T07:59:28.448Z,26.03
2018-05-26T08:00:28.431Z,26.02
2018-05-26T08:01:28.368Z,26.15
2018-05-26T08:02:28.324Z,26.18
2018-05-26T08:03:28.285Z,26.25
2018-05-26T08:04:28.251Z,26.30
2018-05-26T08:05:28.283Z,26.40
2018-05-26T08:06:28.166Z,26.35
2018-05-26T08:07:28.129Z,26.38
2018-05-26T08:08:28.103Z,26.48
2018-05-26T08:09:28.049Z,26.41
2018-05-26T08:10:28.033Z,26.38
2018-05-26T08:11:27.967Z,26.25
2018-05-26T08:12:27.936Z,26.25
2018-05-26T08:13:27.892Z,26.22
2018-05-26T08:14:27.848Z,26.26
2018-05-26T08:15:27.831Z,26.25
2018-05-26T08:16:27.767Z,26.23
2018-05-26T08:17:27.783Z,26.15
2018-05-26T08:18:27.690Z,25.96
2018-05-26T08:19:27.648Z,26.07
2018-05-26T08:20:27.731Z,26.18
2018-05-26T08:21:27.594Z,26.15
2018-05-26T08:22:35.315Z,26.03
2018-05-26T08:23:27.488Z,26.18
2018-05-26T08:24:27.446Z,26.18
2018-05-26T08:25:27.436Z,26.26
2018-05-26T08:26:27.369Z,26.28
2018-05-26T08:27:27.333Z,26.44
2018-05-26T08:28:27.289Z,26.43
2018-05-26T08:29:27.249Z,26.57
2018-05-26T08:30:27.232Z,26.56
2018-05-26T08:31:27.169Z,26.56
2018-05-26T08:32:27.132Z,26.63
2018-05-26T08:33:27.103Z,26.70
2018-05-26T08:34:27.054Z,26.75
2018-05-26T08:35:27.075Z,26.78
2018-05-26T08:36:26.971Z,26.81
2018-05-26T08:37:26.927Z,26.71
2018-05-26T08:38:26.890Z,26.70
2018-05-26T08:39:26.853Z,26.75
2018-05-26T08:40:26.837Z,26.89
2018-05-26T08:41:26.772Z,26.82
2018-05-26T08:42:26.734Z,26.86
2018-05-26T08:43:26.691Z,26.90
2018-05-26T08:44:26.660Z,26.86
2018-05-26T08:45:26.657Z,26.75
2018-05-26T08:46:26.573Z,26.65
2018-05-26T08:47:26.534Z,26.56
2018-05-26T08:48:26.493Z,26.43
2018-05-26T08:49:26.454Z,26.25
2018-05-26T08:50:26.441Z,26.18
2018-05-26T08:51:26.376Z,26.12
2018-05-26T08:52:26.339Z,26.18
2018-05-26T08:53:26.301Z,26.22
2018-05-26T08:54:26.259Z,26.18
2018-05-26T08:55:26.242Z,26.22
2018-05-26T08:56:26.184Z,26.20
2018-05-26T08:57:26.145Z,26.23
2018-05-26T08:58:26.096Z,26.18
2018-05-26T08:59:26.057Z,26.23
2018-05-26T09:00:26.044Z,26.23
2018-05-26T09:01:25.985Z,26.12
2018-05-26T09:02:25.941Z,26.02
2018-05-26T09:03:25.904Z,25.97
2018-05-26T09:04:25.863Z,25.92
2018-05-26T09:05:25.847Z,25.93
2018-05-26T09:06:25.793Z,25.78
2018-05-26T09:07:25.750Z,25.87
2018-05-26T09:08:25.704Z,25.93
2018-05-26T09:09:25.667Z,25.95
2018-05-26T09:10:25.648Z,26.00
2018-05-26T09:11:25.591Z,26.11
2018-05-26T09:12:25.544Z,26.26
2018-05-26T09:13:25.503Z,26.22
2018-05-26T09:14:25.475Z,26.15
2018-05-26T09:15:25.447Z,26.25
2018-05-26T09:16:25.383Z,26.10
2018-05-26T09:17:25.347Z,26.12
2018-05-26T09:18:25.305Z,26.18
2018-05-26T09:19:25.264Z,26.11
2018-05-26T09:20:25.249Z,26.18
2018-05-26T09:21:25.190Z,26.20
2018-05-26T09:22:25.146Z,26.26
2018-05-26T09:23:25.108Z,26.25
2018-05-26T09:24:25.065Z,26.26
2018-05-26T09:25:25.099Z,26.40
2018-05-26T09:26:25.003Z,26.53
2018-05-26T09:27:24.944Z,26.56
2018-05-26T09:28:24.907Z,26.68
2018-05-26T09:29:24.863Z,26.74
2018-05-26T09:30:24.851Z,26.90
2018-05-26T09:31:24.842Z,26.87
2018-05-26T09:32:24.747Z,26.89
2018-05-26T09:33:24.712Z,26.86
2018-05-26T09:34:24.665Z,27.00
2018-05-26T09:35:24.648Z,27.00
2018-05-26T09:36:24.593Z,27.02
2018-05-26T09:37:24.549Z,27.02
2018-05-26T09:38:24.508Z,26.95
2018-05-26T09:39:24.469Z,27.09
2018-05-26T09:40:24.455Z,27.08
2018-05-26T09:41:24.392Z,27.05
2018-05-26T09:42:24.351Z,26.89
2018-05-26T09:43:24.317Z,26.85
2018-05-26T09:44:24.277Z,26.81
2018-05-26T09:45:24.261Z,27.00
2018-05-26T09:46:24.202Z,26.87
2018-05-26T09:47:24.159Z,26.90
2018-05-26T09:48:24.114Z,26.97
2018-05-26T09:49:24.079Z,27.07
2018-05-26T09:50:24.061Z,27.02
2018-05-26T09:51:23.998Z,27.02
2018-05-26T09:52:23.959Z,27.05
2018-05-26T09:53:23.919Z,27.02
2018-05-26T09:54:23.880Z,26.78
2018-05-26T09:55:23.852Z,26.81
2018-05-26T09:56:23.882Z,26.89
2018-05-26T09:57:23.766Z,26.90
2018-05-26T09:58:23.724Z,26.97
2018-05-26T09:59:23.685Z,27.11
2018-05-26T10:00:23.646Z,27.08
2018-05-26T10:01:23.649Z,27.23
2018-05-26T10:02:23.566Z,27.32
2018-05-26T10:03:23.527Z,27.32
2018-05-26T10:04:23.548Z,27.44
2018-05-26T10:05:23.451Z,27.52
2018-05-26T10:06:23.434Z,27.42
2018-05-26T10:07:23.371Z,27.49
2018-05-26T10:08:23.340Z,27.65
2018-05-26T10:09:23.292Z,27.45
2018-05-26T10:10:23.251Z,27.36
2018-05-26T10:11:23.242Z,27.30
2018-05-26T10:12:23.190Z,27.33
2018-05-26T10:13:23.193Z,27.39
2018-05-26T10:14:23.099Z,27.42
2018-05-26T10:15:23.060Z,27.51
2018-05-26T10:16:23.040Z,27.46
2018-05-26T10:17:22.978Z,27.45
2018-05-26T10:18:22.938Z,27.52
2018-05-26T10:19:22.903Z,27.65
2018-05-26T10:20:22.862Z,27.72
2018-05-26T10:21:22.848Z,27.80
2018-05-26T10:22:22.787Z,27.86
2018-05-26T10:23:22.746Z,27.98
2018-05-26T10:24:22.707Z,27.79
2018-05-26T10:25:22.671Z,27.71
2018-05-26T10:26:22.719Z,27.71
2018-05-26T10:27:22.585Z,27.89
2018-05-26T10:28:22.553Z,27.83
2018-05-26T10:29:22.517Z,27.85
2018-05-26T10:30:22.471Z,27.83
2018-05-26T10:31:22.462Z,27.93
2018-05-26T10:32:22.396Z,27.92
2018-05-26T10:33:22.413Z,28.09
2018-05-26T10:34:22.330Z,28.07
2018-05-26T10:35:22.282Z,28.09
2018-05-26T10:36:22.267Z,28.20
2018-05-26T10:37:22.235Z,28.19
2018-05-26T10:38:22.163Z,28.11
2018-05-26T10:39:22.123Z,28.11
2018-05-26T10:40:22.095Z,28.04
2018-05-26T10:41:22.074Z,28.09
2018-05-26T10:42:22.042Z,28.12
2018-05-26T10:43:21.976Z,28.09
2018-05-26T10:44:21.929Z,28.01
2018-05-26T10:45:21.902Z,27.97
2018-05-26T10:46:21.880Z,28.12
2018-05-26T10:47:21.819Z,28.16
2018-05-26T10:48:21.782Z,28.32
2018-05-26T10:49:21.742Z,28.17
2018-05-26T10:50:21.705Z,27.93
2018-05-26T10:51:21.691Z,27.77
2018-05-26T10:52:21.635Z,27.75
2018-05-26T10:53:21.612Z,27.75
2018-05-26T10:54:21.582Z,27.93
2018-05-26T10:55:21.515Z,28.04
2018-05-26T10:56:21.500Z,28.09
2018-05-26T10:57:21.433Z,28.05
2018-05-26T10:58:21.394Z,28.12
2018-05-26T10:59:21.359Z,28.16
2018-05-26T11:00:21.320Z,28.30
2018-05-26T11:01:21.316Z,28.20
2018-05-26T11:02:21.243Z,28.02
2018-05-26T11:03:21.206Z,28.01
2018-05-26T11:04:21.205Z,28.02
2018-05-26T11:05:21.131Z,28.11
2018-05-26T11:06:21.119Z,28.17
2018-05-26T11:07:21.053Z,28.02
2018-05-26T11:08:21.022Z,27.87
2018-05-26T11:09:20.974Z,27.87
2018-05-26T11:10:20.938Z,27.70
2018-05-26T11:11:20.923Z,27.74
2018-05-26T11:12:20.860Z,27.67
2018-05-26T11:13:20.882Z,27.83
2018-05-26T11:14:20.785Z,27.89
2018-05-26T11:15:20.746Z,27.90
2018-05-26T11:16:20.838Z,27.93
2018-05-26T11:17:20.671Z,27.98
2018-05-26T11:18:20.629Z,28.07
2018-05-26T11:19:20.591Z,28.11
2018-05-26T11:20:20.612Z,27.87
2018-05-26T11:21:20.540Z,27.71
2018-05-26T11:22:20.477Z,27.70
2018-05-26T11:23:20.458Z,27.71
2018-05-26T11:24:20.411Z,27.79
2018-05-26T11:25:20.372Z,27.79
2018-05-26T11:26:20.384Z,27.90
2018-05-26T11:27:20.285Z,28.02
2018-05-26T11:28:20.241Z,28.11
2018-05-26T11:29:20.209Z,28.26
2018-05-26T11:30:20.166Z,28.17
2018-05-26T11:31:20.155Z,28.09
2018-05-26T11:32:20.094Z,28.09
2018-05-26T11:33:20.054Z,28.11
2018-05-26T11:34:20.012Z,27.98
2018-05-26T11:35:19.979Z,28.05
2018-05-26T11:36:19.962Z,28.04
2018-05-26T11:37:19.935Z,27.93
2018-05-26T11:38:19.861Z,27.97
2018-05-26T11:39:19.821Z,27.90
2018-05-26T11:40:19.784Z,27.98
2018-05-26T11:41:19.768Z,27.97
2018-05-26T11:42:19.711Z,28.04
2018-05-26T11:43:19.669Z,28.02
2018-05-26T11:44:19.633Z,27.99
2018-05-26T11:45:27.458Z,28.02
2018-05-26T11:46:19.576Z,28.07
2018-05-26T11:47:19.515Z,28.16
2018-05-26T11:48:19.476Z,28.32
2018-05-26T11:49:19.440Z,28.20
2018-05-26T11:50:19.399Z,28.16
2018-05-26T11:51:19.384Z,28.16
2018-05-26T11:52:19.323Z,28.02
2018-05-26T11:53:19.343Z,27.92
2018-05-26T11:54:26.349Z,27.97
2018-05-26T11:55:19.203Z,27.92
2018-05-26T11:56:19.188Z,27.97
2018-05-26T11:57:19.126Z,28.07
2018-05-26T11:58:19.093Z,28.05
2018-05-26T11:59:19.067Z,28.01
2018-05-26T12:00:19.024Z,28.11
2018-05-26T12:01:18.995Z,28.09
2018-05-26T12:02:18.936Z,28.01
2018-05-26T12:03:18.900Z,28.01
2018-05-26T12:04:18.858Z,28.05
2018-05-26T12:05:18.816Z,28.02
2018-05-26T12:06:18.828Z,28.08
2018-05-26T12:07:18.739Z,28.20
2018-05-26T12:08:18.700Z,28.24
2018-05-26T12:09:18.661Z,28.38
2018-05-26T12:10:18.623Z,28.36
2018-05-26T12:11:18.606Z,28.39
2018-05-26T12:12:18.548Z,28.39
2018-05-26T12:13:18.506Z,28.48
2018-05-26T12:14:18.465Z,28.57
2018-05-26T12:15:18.432Z,28.54
2018-05-26T12:16:18.412Z,28.57
2018-05-26T12:17:18.355Z,28.60
2018-05-26T12:18:18.312Z,28.57
2018-05-26T12:19:18.276Z,28.58
2018-05-26T12:20:18.252Z,28.58
2018-05-26T12:21:18.233Z,28.53
2018-05-26T12:22:18.160Z,28.45
2018-05-26T12:23:18.121Z,28.64
2018-05-26T12:24:18.089Z,28.67
2018-05-26T12:25:26.059Z,28.69
2018-05-26T12:26:25.127Z,28.61
2018-05-26T12:27:17.971Z,28.73
2018-05-26T12:28:17.931Z,28.66
2018-05-26T12:29:17.893Z,28.67
2018-05-26T12:30:17.851Z,28.53
2018-05-26T12:31:17.817Z,28.46
2018-05-26T12:32:17.805Z,28.57
2018-05-26T12:33:17.740Z,28.53
2018-05-26T12:34:17.703Z,28.49
2018-05-26T12:35:17.663Z,28.57
2018-05-26T12:36:17.646Z,28.53
2018-05-26T12:37:17.625Z,28.54
2018-05-26T12:38:17.548Z,28.46
2018-05-26T12:39:17.510Z,28.44
2018-05-26T12:40:17.470Z,28.51
2018-05-26T12:41:17.433Z,28.44
2018-05-26T12:42:17.415Z,28.54
2018-05-26T12:43:17.355Z,28.54
2018-05-26T12:44:17.315Z,28.44
2018-05-26T12:45:17.311Z,28.57
2018-05-26T12:46:17.240Z,28.46
2018-05-26T12:47:17.223Z,28.48
2018-05-26T12:48:17.164Z,28.58
2018-05-26T12:49:17.129Z,28.67
2018-05-26T12:50:17.089Z,28.88
2018-05-26T12:51:17.048Z,28.98
2018-05-26T12:52:17.101Z,29.16